Terminal Aerodrome Forecast
Issued by NWS

Home | Current Version | Previous Version | Text Only | Print | Product List | Glossary On
Versions: 1 2 3 4 5 6 7 8 9 10 11 12 13 14 15 16 17 18 19 20 21 22 23 24 25 26 27
000
FTUS43 KSGF 040400 AAA
TAFJLN
TAF AMD
KJLN 040435Z 0405/0424 29010KT 6SM -DZ OVC005
     FM040600 35010KT 4SM -RADZ BR OVC005
     FM040700 01012KT 2SM -FZRASNPL BR OVC004
     FM041200 02013KT 1SM -SN OVC006
     FM042000 02012KT 4SM -SN BR OVC010=

USA.gov is the U.S. government's official web portal to all federal, state and local government web resources and services.